Rose, Kansas
Current Conditions -  °F | °C
As of 7:52 PM on Saturday 25 Oct 2014 (Local Time) from KCNU Reporting Station
Clear Clear  
Wind Chill: 68°   Ceiling: Unl
Heat Index: 68°   Visibility: 10mi
Dew Point: 64°   Wind: 7mph
Humidity: 87%   Direction: 140°SE
Pressure: 30"   Gusts: NA
Location:  37.893°N, 95.7469°W
Report Text: KCNU 260052Z AUTO 14006KT 10SM CLR 20/18 A3000 RMK AO2 SLP153 T02000178
Loading
Personal Weather Stations






























Interactive Weather Map
Tropical Storm Tracking
New forecast layout! Learn more

10-Day Weather Forecast

Advertisements
Track Severe Weather on mobile